QFA3479 YMML-YSSY
Flight info
| Callsign | QFA3479 |
|---|---|
| Flight time | 0h 59m |
| Altitude | 35000 |
| Route | DCT ML H129 DOSEL Y59 RIVET RIVET4 |
| Aircraft | A21N/M-SDE2E3FGHIRWXY/LB1 |
Departure
| Time | 2026-05-08 00:25 |
|---|---|
| Airport | Melbourne Airport (YMML) |
Arrival
| Time | 2026-05-08 01:25 |
|---|---|
| Airport | Sydney Kingsford Smith International Airport (YSSY) |
| Time | Latitude | Longitude | Altitude | Speed | Heading |
|---|---|---|---|---|---|
| 2026-05-08 00:01 | -37.66626 | 144.84894 | 442 ft | 0 kts | 168° |
| 2026-05-08 00:17 | -37.66615 | 144.84892 | 442 ft | 2 kts | 168° |
| 2026-05-08 00:17 | -37.66600 | 144.84888 | 442 ft | 2 kts | 168° |
| 2026-05-08 00:17 | -37.66586 | 144.84883 | 442 ft | 2 kts | 168° |
| 2026-05-08 00:17 | -37.66571 | 144.84880 | 442 ft | 2 kts | 168° |
| 2026-05-08 00:18 | -37.66562 | 144.84877 | 442 ft | 2 kts | 168° |
| 2026-05-08 00:18 | -37.66549 | 144.84868 | 442 ft | 2 kts | 118° |
| 2026-05-08 00:18 | -37.66546 | 144.84853 | 442 ft | 0 kts | 85° |
| 2026-05-08 00:18 | -37.66546 | 144.84856 | 442 ft | 2 kts | 88° |
| 2026-05-08 00:19 | -37.66541 | 144.84909 | 442 ft | 7 kts | 82° |
| 2026-05-08 00:19 | -37.66535 | 144.84963 | 442 ft | 3 kts | 82° |
| 2026-05-08 00:19 | -37.66534 | 144.84975 | 442 ft | 0 kts | 82° |
| 2026-05-08 00:21 | -37.66531 | 144.84990 | 442 ft | 6 kts | 75° |
| 2026-05-08 00:22 | -37.66501 | 144.85034 | 442 ft | 7 kts | 14° |
| 2026-05-08 00:22 | -37.66449 | 144.85010 | 442 ft | 8 kts | 325° |
| 2026-05-08 00:22 | -37.66417 | 144.84981 | 442 ft | 4 kts | 323° |
| 2026-05-08 00:22 | -37.66389 | 144.84955 | 442 ft | 5 kts | 321° |
| 2026-05-08 00:23 | -37.66363 | 144.84927 | 442 ft | 3 kts | 319° |
| 2026-05-08 00:23 | -37.66362 | 144.84926 | 442 ft | 0 kts | 319° |
| 2026-05-08 00:23 | -37.66324 | 144.84886 | 442 ft | 10 kts | 321° |
| 2026-05-08 00:24 | -37.66268 | 144.84827 | 442 ft | 10 kts | 317° |
| 2026-05-08 00:24 | -37.66228 | 144.84767 | 442 ft | 6 kts | 287° |
| 2026-05-08 00:24 | -37.66226 | 144.84757 | 442 ft | 0 kts | 280° |
| 2026-05-08 00:24 | -37.66224 | 144.84741 | 442 ft | 8 kts | 278° |
| 2026-05-08 00:25 | -37.66199 | 144.84337 | 442 ft | 81 kts | 274° |
| 2026-05-08 00:25 | -37.66144 | 144.83362 | 443 ft | 139 kts | 274° |
| 2026-05-08 00:25 | -37.66071 | 144.82005 | 726 ft | 161 kts | 271° |
| 2026-05-08 00:25 | -37.65982 | 144.80611 | 1443 ft | 160 kts | 270° |
| 2026-05-08 00:26 | -37.65895 | 144.79256 | 2195 ft | 157 kts | 268° |
| 2026-05-08 00:26 | -37.65814 | 144.77841 | 2672 ft | 169 kts | 268° |
| 2026-05-08 00:26 | -37.65731 | 144.76294 | 3095 ft | 186 kts | 268° |
| 2026-05-08 00:26 | -37.65638 | 144.74609 | 3489 ft | 205 kts | 268° |
| 2026-05-08 00:27 | -37.65395 | 144.72739 | 3853 ft | 234 kts | 287° |
| 2026-05-08 00:27 | -37.64248 | 144.71080 | 4291 ft | 271 kts | 324° |
| 2026-05-08 00:27 | -37.62405 | 144.70403 | 4979 ft | 288 kts | 350° |
| 2026-05-08 00:27 | -37.60394 | 144.70218 | 5790 ft | 293 kts | 352° |
| 2026-05-08 00:28 | -37.58349 | 144.69981 | 6567 ft | 297 kts | 349° |
| 2026-05-08 00:28 | -37.56297 | 144.69611 | 7317 ft | 301 kts | 346° |
| 2026-05-08 00:28 | -37.54197 | 144.69136 | 8044 ft | 307 kts | 345° |
| 2026-05-08 00:28 | -37.52109 | 144.68663 | 8743 ft | 313 kts | 350° |
| 2026-05-08 00:29 | -37.49910 | 144.68986 | 9377 ft | 324 kts | 22° |
| 2026-05-08 00:29 | -37.48093 | 144.70587 | 10031 ft | 323 kts | 51° |
| 2026-05-08 00:29 | -37.46801 | 144.72884 | 10598 ft | 327 kts | 64° |
| 2026-05-08 00:29 | -37.45718 | 144.75501 | 10926 ft | 342 kts | 68° |
| 2026-05-08 00:30 | -37.44618 | 144.78252 | 11232 ft | 360 kts | 67° |
| 2026-05-08 00:30 | -37.43443 | 144.81061 | 11519 ft | 376 kts | 65° |
| 2026-05-08 00:30 | -37.42142 | 144.84042 | 11797 ft | 393 kts | 64° |
| 2026-05-08 00:30 | -37.40781 | 144.87076 | 12054 ft | 408 kts | 64° |
| 2026-05-08 00:31 | -37.39364 | 144.90190 | 12291 ft | 422 kts | 63° |
| 2026-05-08 00:31 | -37.37861 | 144.93466 | 12528 ft | 434 kts | 63° |
| 2026-05-08 00:31 | -37.36340 | 144.96773 | 12927 ft | 442 kts | 63° |
| 2026-05-08 00:31 | -37.34803 | 145.00099 | 13474 ft | 444 kts | 63° |
| 2026-05-08 00:32 | -37.33236 | 145.03488 | 13971 ft | 448 kts | 63° |
| 2026-05-08 00:32 | -37.31661 | 145.06895 | 14463 ft | 451 kts | 63° |
| 2026-05-08 00:32 | -37.30088 | 145.10295 | 14964 ft | 454 kts | 63° |
| 2026-05-08 00:32 | -37.28488 | 145.13753 | 15485 ft | 455 kts | 63° |
| 2026-05-08 00:33 | -37.26902 | 145.17174 | 15933 ft | 459 kts | 63° |
| 2026-05-08 00:33 | -37.25295 | 145.20636 | 16369 ft | 462 kts | 63° |
| 2026-05-08 00:33 | -37.23671 | 145.24136 | 16816 ft | 465 kts | 63° |
| 2026-05-08 00:33 | -37.22041 | 145.27644 | 17268 ft | 466 kts | 63° |
| 2026-05-08 00:34 | -37.20410 | 145.31148 | 17698 ft | 468 kts | 62° |
| 2026-05-08 00:34 | -37.18762 | 145.34688 | 18113 ft | 470 kts | 62° |
| 2026-05-08 00:34 | -37.17100 | 145.38209 | 18500 ft | 473 kts | 61° |
| 2026-05-08 00:34 | -37.15288 | 145.41669 | 18853 ft | 478 kts | 57° |
| 2026-05-08 00:35 | -37.13376 | 145.45041 | 19215 ft | 480 kts | 57° |
| 2026-05-08 00:35 | -37.11411 | 145.48465 | 19585 ft | 482 kts | 57° |
| 2026-05-08 00:35 | -37.09448 | 145.51874 | 19941 ft | 484 kts | 56° |
| 2026-05-08 00:35 | -37.07471 | 145.55299 | 20278 ft | 487 kts | 56° |
| 2026-05-08 00:36 | -37.05483 | 145.58749 | 20602 ft | 489 kts | 57° |
| 2026-05-08 00:36 | -37.03498 | 145.62190 | 20892 ft | 492 kts | 57° |
| 2026-05-08 00:36 | -37.01482 | 145.65688 | 21225 ft | 493 kts | 56° |
| 2026-05-08 00:36 | -36.99474 | 145.69170 | 21539 ft | 495 kts | 56° |
| 2026-05-08 00:37 | -36.97464 | 145.72647 | 21821 ft | 498 kts | 56° |
| 2026-05-08 00:37 | -36.95425 | 145.76175 | 22063 ft | 501 kts | 56° |
| 2026-05-08 00:37 | -36.93393 | 145.79686 | 22347 ft | 502 kts | 56° |
| 2026-05-08 00:38 | -36.89252 | 145.86827 | 22888 ft | 506 kts | 56° |
| 2026-05-08 00:38 | -36.87200 | 145.90364 | 23114 ft | 508 kts | 56° |
| 2026-05-08 00:38 | -36.85113 | 145.93956 | 23347 ft | 510 kts | 56° |
| 2026-05-08 00:38 | -36.83021 | 145.97548 | 23591 ft | 512 kts | 56° |
| 2026-05-08 00:39 | -36.80948 | 146.01106 | 23924 ft | 511 kts | 56° |
| 2026-05-08 00:39 | -36.78842 | 146.04719 | 24284 ft | 510 kts | 56° |
| 2026-05-08 00:39 | -36.76776 | 146.08256 | 24622 ft | 509 kts | 56° |
| 2026-05-08 00:39 | -36.74677 | 146.11847 | 24988 ft | 508 kts | 56° |
| 2026-05-08 00:40 | -36.72610 | 146.15379 | 25317 ft | 508 kts | 56° |
| 2026-05-08 00:40 | -36.70519 | 146.18951 | 25632 ft | 508 kts | 56° |
| 2026-05-08 00:40 | -36.68458 | 146.22469 | 25979 ft | 507 kts | 56° |
| 2026-05-08 00:40 | -36.66384 | 146.26003 | 26334 ft | 506 kts | 56° |
| 2026-05-08 00:41 | -36.64298 | 146.29555 | 26676 ft | 505 kts | 56° |
| 2026-05-08 00:41 | -36.62230 | 146.33070 | 27009 ft | 505 kts | 56° |
| 2026-05-08 00:41 | -36.60143 | 146.36615 | 27296 ft | 505 kts | 56° |
| 2026-05-08 00:41 | -36.58075 | 146.40126 | 27611 ft | 505 kts | 56° |
| 2026-05-08 00:42 | -36.56013 | 146.43622 | 27938 ft | 505 kts | 56° |
| 2026-05-08 00:42 | -36.53911 | 146.47180 | 28295 ft | 504 kts | 56° |
| 2026-05-08 00:42 | -36.51823 | 146.50714 | 28653 ft | 504 kts | 56° |
| 2026-05-08 00:42 | -36.49754 | 146.54211 | 29012 ft | 503 kts | 56° |
| 2026-05-08 00:43 | -36.47660 | 146.57747 | 29369 ft | 503 kts | 57° |
| 2026-05-08 00:43 | -36.45612 | 146.61200 | 29700 ft | 503 kts | 56° |
| 2026-05-08 00:43 | -36.43534 | 146.64700 | 30038 ft | 503 kts | 57° |
| 2026-05-08 00:43 | -36.41454 | 146.68201 | 30382 ft | 502 kts | 56° |
| 2026-05-08 00:44 | -36.39369 | 146.71709 | 30734 ft | 501 kts | 56° |
| 2026-05-08 00:44 | -36.37306 | 146.75174 | 31092 ft | 500 kts | 56° |
| 2026-05-08 00:44 | -36.35231 | 146.78656 | 31451 ft | 500 kts | 56° |
| 2026-05-08 00:44 | -36.33167 | 146.82118 | 31798 ft | 499 kts | 56° |
| 2026-05-08 00:45 | -36.31099 | 146.85580 | 32134 ft | 499 kts | 56° |
| 2026-05-08 00:45 | -36.29044 | 146.89018 | 32473 ft | 498 kts | 56° |
| 2026-05-08 00:45 | -36.26982 | 146.92464 | 32815 ft | 497 kts | 56° |
| 2026-05-08 00:45 | -36.24921 | 146.95906 | 33119 ft | 497 kts | 56° |
| 2026-05-08 00:46 | -36.22871 | 146.99324 | 33437 ft | 497 kts | 56° |
| 2026-05-08 00:46 | -36.20797 | 147.02780 | 33728 ft | 497 kts | 56° |
| 2026-05-08 00:46 | -36.18729 | 147.06218 | 33966 ft | 498 kts | 57° |
| 2026-05-08 00:46 | -36.16670 | 147.09642 | 34163 ft | 500 kts | 57° |
| 2026-05-08 00:47 | -36.14576 | 147.13123 | 34393 ft | 501 kts | 57° |
| 2026-05-08 00:47 | -36.12522 | 147.16539 | 34628 ft | 501 kts | 57° |
| 2026-05-08 00:47 | -36.10412 | 147.20035 | 34810 ft | 502 kts | 57° |
| 2026-05-08 00:47 | -36.08332 | 147.23483 | 34975 ft | 503 kts | 56° |
| 2026-05-08 00:48 | -36.06227 | 147.26968 | 35138 ft | 504 kts | 56° |
| 2026-05-08 00:48 | -36.02056 | 147.33858 | 35179 ft | 504 kts | 56° |
| 2026-05-08 00:49 | -35.97831 | 147.40819 | 35183 ft | 504 kts | 56° |
| 2026-05-08 00:49 | -35.93631 | 147.47729 | 35182 ft | 505 kts | 56° |
| 2026-05-08 00:50 | -35.89420 | 147.54643 | 35183 ft | 506 kts | 56° |
| 2026-05-08 00:50 | -35.85180 | 147.61586 | 35187 ft | 505 kts | 56° |
| 2026-05-08 00:51 | -35.80955 | 147.68498 | 35180 ft | 505 kts | 55° |
| 2026-05-08 00:51 | -35.76736 | 147.75392 | 35165 ft | 506 kts | 55° |
| 2026-05-08 00:52 | -35.72499 | 147.82295 | 35171 ft | 507 kts | 55° |
| 2026-05-08 00:52 | -35.68213 | 147.89259 | 35170 ft | 507 kts | 54° |
| 2026-05-08 00:53 | -35.63959 | 147.96155 | 35193 ft | 507 kts | 55° |
| 2026-05-08 00:53 | -35.59711 | 148.03035 | 35199 ft | 506 kts | 55° |
| 2026-05-08 00:54 | -35.55455 | 148.09912 | 35184 ft | 507 kts | 54° |
| 2026-05-08 00:54 | -35.51186 | 148.16798 | 35190 ft | 508 kts | 54° |
| 2026-05-08 00:55 | -35.46910 | 148.23675 | 35196 ft | 508 kts | 54° |
| 2026-05-08 00:55 | -35.42629 | 148.30548 | 35182 ft | 509 kts | 54° |
| 2026-05-08 00:56 | -35.38319 | 148.37470 | 35181 ft | 510 kts | 54° |
| 2026-05-08 00:56 | -35.34027 | 148.44336 | 35156 ft | 510 kts | 54° |
| 2026-05-08 00:57 | -35.29686 | 148.51268 | 35148 ft | 511 kts | 54° |
| 2026-05-08 00:57 | -35.25359 | 148.58162 | 35144 ft | 511 kts | 54° |
| 2026-05-08 00:58 | -35.21039 | 148.65033 | 35156 ft | 511 kts | 53° |
| 2026-05-08 00:58 | -35.16705 | 148.71912 | 35151 ft | 512 kts | 53° |
| 2026-05-08 00:59 | -35.12365 | 148.78786 | 35156 ft | 513 kts | 53° |
| 2026-05-08 00:59 | -35.07980 | 148.85716 | 35159 ft | 514 kts | 53° |
| 2026-05-08 01:00 | -35.03623 | 148.92596 | 35172 ft | 514 kts | 53° |
| 2026-05-08 01:00 | -34.99245 | 148.99493 | 35164 ft | 516 kts | 53° |
| 2026-05-08 01:01 | -34.94836 | 149.06419 | 35149 ft | 518 kts | 53° |
| 2026-05-08 01:01 | -34.90410 | 149.13358 | 35156 ft | 517 kts | 53° |
| 2026-05-08 01:02 | -34.85982 | 149.20288 | 35155 ft | 518 kts | 53° |
| 2026-05-08 01:02 | -34.81558 | 149.27202 | 35160 ft | 519 kts | 52° |
| 2026-05-08 01:03 | -34.77136 | 149.34097 | 34824 ft | 521 kts | 53° |
| 2026-05-08 01:03 | -34.74968 | 149.37676 | 34172 ft | 521 kts | 57° |
| 2026-05-08 01:03 | -34.73004 | 149.41357 | 33421 ft | 520 kts | 61° |
| 2026-05-08 01:03 | -34.71239 | 149.45165 | 32674 ft | 519 kts | 64° |
| 2026-05-08 01:04 | -34.69572 | 149.48997 | 31895 ft | 519 kts | 65° |
| 2026-05-08 01:04 | -34.67883 | 149.52918 | 31098 ft | 519 kts | 66° |
| 2026-05-08 01:04 | -34.66214 | 149.56782 | 30270 ft | 520 kts | 66° |
| 2026-05-08 01:04 | -34.64540 | 149.60641 | 29418 ft | 519 kts | 65° |
| 2026-05-08 01:05 | -34.62852 | 149.64523 | 28514 ft | 520 kts | 65° |
| 2026-05-08 01:05 | -34.61124 | 149.68478 | 27603 ft | 519 kts | 65° |
| 2026-05-08 01:05 | -34.59415 | 149.72382 | 26690 ft | 519 kts | 64° |
| 2026-05-08 01:05 | -34.57718 | 149.76244 | 25750 ft | 520 kts | 64° |
| 2026-05-08 01:06 | -34.56020 | 149.80100 | 24784 ft | 521 kts | 64° |
| 2026-05-08 01:06 | -34.54313 | 149.83968 | 23806 ft | 522 kts | 65° |
| 2026-05-08 01:06 | -34.52612 | 149.87826 | 22869 ft | 522 kts | 64° |
| 2026-05-08 01:06 | -34.50908 | 149.91693 | 22243 ft | 515 kts | 64° |
| 2026-05-08 01:07 | -34.49226 | 149.95505 | 21589 ft | 509 kts | 64° |
| 2026-05-08 01:07 | -34.47578 | 149.99232 | 20942 ft | 503 kts | 64° |
| 2026-05-08 01:07 | -34.45925 | 150.02968 | 20286 ft | 498 kts | 64° |
| 2026-05-08 01:07 | -34.44302 | 150.06628 | 19638 ft | 493 kts | 64° |
| 2026-05-08 01:08 | -34.42693 | 150.10255 | 18989 ft | 489 kts | 63° |
| 2026-05-08 01:08 | -34.41080 | 150.13887 | 18337 ft | 484 kts | 63° |
| 2026-05-08 01:08 | -34.39501 | 150.17436 | 17692 ft | 481 kts | 63° |
| 2026-05-08 01:08 | -34.37920 | 150.20985 | 17030 ft | 477 kts | 63° |
| 2026-05-08 01:09 | -34.36354 | 150.24493 | 16387 ft | 473 kts | 64° |
| 2026-05-08 01:09 | -34.34803 | 150.27972 | 15743 ft | 469 kts | 64° |
| 2026-05-08 01:09 | -34.33241 | 150.31467 | 15093 ft | 465 kts | 64° |
| 2026-05-08 01:09 | -34.31727 | 150.34854 | 14453 ft | 461 kts | 63° |
| 2026-05-08 01:10 | -34.30204 | 150.38257 | 13797 ft | 457 kts | 63° |
| 2026-05-08 01:10 | -34.28697 | 150.41621 | 13155 ft | 453 kts | 64° |
| 2026-05-08 01:10 | -34.27205 | 150.44951 | 12517 ft | 449 kts | 64° |
| 2026-05-08 01:10 | -34.25741 | 150.48225 | 12056 ft | 439 kts | 64° |
| 2026-05-08 01:11 | -34.24307 | 150.51433 | 11725 ft | 427 kts | 64° |
| 2026-05-08 01:11 | -34.22923 | 150.54520 | 11438 ft | 406 kts | 64° |
| 2026-05-08 01:11 | -34.21622 | 150.57416 | 11176 ft | 383 kts | 64° |
| 2026-05-08 01:11 | -34.20390 | 150.60159 | 10942 ft | 361 kts | 65° |
| 2026-05-08 01:12 | -34.19228 | 150.62749 | 10741 ft | 341 kts | 65° |
| 2026-05-08 01:12 | -34.18123 | 150.65205 | 10562 ft | 325 kts | 64° |
| 2026-05-08 01:12 | -34.17051 | 150.67593 | 10392 ft | 317 kts | 65° |
| 2026-05-08 01:12 | -34.16015 | 150.69907 | 10239 ft | 311 kts | 64° |
| 2026-05-08 01:13 | -34.14994 | 150.72179 | 10106 ft | 308 kts | 65° |
| 2026-05-08 01:13 | -34.13980 | 150.74434 | 9977 ft | 305 kts | 65° |
| 2026-05-08 01:13 | -34.12960 | 150.76692 | 9658 ft | 306 kts | 65° |
| 2026-05-08 01:13 | -34.11946 | 150.78944 | 9325 ft | 306 kts | 65° |
| 2026-05-08 01:14 | -34.10914 | 150.81236 | 8712 ft | 317 kts | 65° |
| 2026-05-08 01:14 | -34.09839 | 150.83633 | 7926 ft | 329 kts | 64° |
| 2026-05-08 01:14 | -34.08773 | 150.86000 | 7822 ft | 316 kts | 64° |
| 2026-05-08 01:14 | -34.07744 | 150.88271 | 7743 ft | 305 kts | 64° |
| 2026-05-08 01:15 | -34.06735 | 150.90509 | 7425 ft | 303 kts | 64° |
| 2026-05-08 01:15 | -34.05721 | 150.92760 | 7091 ft | 301 kts | 64° |
| 2026-05-08 01:15 | -34.04731 | 150.94957 | 6770 ft | 299 kts | 64° |
| 2026-05-08 01:15 | -34.03738 | 150.97163 | 6437 ft | 297 kts | 65° |
| 2026-05-08 01:16 | -34.03024 | 150.99443 | 6050 ft | 289 kts | 88° |
| 2026-05-08 01:16 | -34.03344 | 151.01735 | 5826 ft | 271 kts | 122° |
| 2026-05-08 01:16 | -34.04490 | 151.03496 | 5861 ft | 265 kts | 141° |
| 2026-05-08 01:16 | -34.05818 | 151.05057 | 5886 ft | 265 kts | 140° |
| 2026-05-08 01:17 | -34.07130 | 151.06604 | 5906 ft | 264 kts | 143° |
| 2026-05-08 01:17 | -34.08648 | 151.07782 | 5520 ft | 260 kts | 162° |
| 2026-05-08 01:17 | -34.10371 | 151.08369 | 5098 ft | 256 kts | 172° |
| 2026-05-08 01:17 | -34.12114 | 151.08801 | 4678 ft | 256 kts | 173° |
| 2026-05-08 01:18 | -34.13889 | 151.09236 | 4253 ft | 257 kts | 173° |
| 2026-05-08 01:18 | -34.15642 | 151.09674 | 3831 ft | 257 kts | 173° |
| 2026-05-08 01:18 | -34.17386 | 151.10121 | 3413 ft | 258 kts | 171° |
| 2026-05-08 01:18 | -34.19026 | 151.11009 | 3015 ft | 268 kts | 143° |
| 2026-05-08 01:19 | -34.20012 | 151.12932 | 2958 ft | 274 kts | 110° |
| 2026-05-08 01:19 | -34.20121 | 151.15243 | 2954 ft | 282 kts | 82° |
| 2026-05-08 01:19 | -34.19458 | 151.17482 | 2963 ft | 284 kts | 67° |
| 2026-05-08 01:19 | -34.18626 | 151.19655 | 2951 ft | 284 kts | 66° |
| 2026-05-08 01:20 | -34.17749 | 151.21786 | 2935 ft | 279 kts | 56° |
| 2026-05-08 01:20 | -34.16340 | 151.23245 | 2915 ft | 257 kts | 18° |
| 2026-05-08 01:20 | -34.14688 | 151.23428 | 2934 ft | 234 kts | 342° |
| 2026-05-08 01:20 | -34.13186 | 151.22896 | 2947 ft | 219 kts | 335° |
| 2026-05-08 01:21 | -34.11758 | 151.22308 | 2938 ft | 210 kts | 335° |
| 2026-05-08 01:21 | -34.10405 | 151.21822 | 2927 ft | 195 kts | 338° |
| 2026-05-08 01:21 | -34.09093 | 151.21400 | 2798 ft | 197 kts | 339° |
| 2026-05-08 01:21 | -34.07732 | 151.21005 | 2312 ft | 204 kts | 340° |
| 2026-05-08 01:22 | -34.06356 | 151.20642 | 1973 ft | 201 kts | 340° |
| 2026-05-08 01:22 | -34.05004 | 151.20299 | 1768 ft | 190 kts | 340° |
| 2026-05-08 01:22 | -34.03731 | 151.19975 | 1503 ft | 181 kts | 340° |
| 2026-05-08 01:22 | -34.02533 | 151.19664 | 1241 ft | 174 kts | 340° |
| 2026-05-08 01:23 | -34.01369 | 151.19359 | 1046 ft | 167 kts | 340° |
| 2026-05-08 01:23 | -34.00266 | 151.19063 | 783 ft | 155 kts | 339° |
| 2026-05-08 01:23 | -33.99261 | 151.18779 | 553 ft | 144 kts | 340° |
| 2026-05-08 01:23 | -33.98280 | 151.18547 | 402 ft | 143 kts | 340° |
| 2026-05-08 01:24 | -33.97308 | 151.18298 | 246 ft | 142 kts | 340° |
| 2026-05-08 01:24 | -33.96336 | 151.18045 | 69 ft | 141 kts | 340° |
| 2026-05-08 01:24 | -33.95429 | 151.17796 | 28 ft | 123 kts | 348° |
| 2026-05-08 01:24 | -33.94790 | 151.17645 | 28 ft | 55 kts | 358° |
| 2026-05-08 01:25 | -33.94562 | 151.17670 | 28 ft | 18 kts | 15° |
| 2026-05-08 01:25 | -33.94523 | 151.17682 | 28 ft | 0 kts | 15° |
| 2026-05-08 01:26 | -33.94522 | 151.17682 | 28 ft | 1 kts | 15° |
| 2026-05-08 01:26 | -33.94484 | 151.17696 | 28 ft | 12 kts | 17° |
| 2026-05-08 01:26 | -33.94381 | 151.17732 | 28 ft | 15 kts | 11° |
| 2026-05-08 01:27 | -33.94276 | 151.17717 | 28 ft | 14 kts | 345° |
| 2026-05-08 01:27 | -33.94174 | 151.17685 | 28 ft | 16 kts | 347° |
| 2026-05-08 01:27 | -33.94049 | 151.17648 | 28 ft | 18 kts | 349° |
| 2026-05-08 01:27 | -33.93936 | 151.17618 | 28 ft | 14 kts | 348° |
| 2026-05-08 01:28 | -33.93864 | 151.17680 | 28 ft | 13 kts | 72° |
| 2026-05-08 01:28 | -33.93827 | 151.17749 | 28 ft | 9 kts | 28° |
| 2026-05-08 01:28 | -33.93762 | 151.17778 | 28 ft | 10 kts | 17° |
| 2026-05-08 01:28 | -33.93701 | 151.17796 | 28 ft | 8 kts | 13° |
| 2026-05-08 01:29 | -33.93649 | 151.17812 | 28 ft | 7 kts | 14° |
| 2026-05-08 01:29 | -33.93601 | 151.17822 | 28 ft | 6 kts | 11° |
| 2026-05-08 01:29 | -33.93559 | 151.17831 | 28 ft | 5 kts | 9° |
| 2026-05-08 01:29 | -33.93525 | 151.17837 | 28 ft | 0 kts | 9° |
| 2026-05-08 01:30 | -33.93523 | 151.17839 | 28 ft | 0 kts | 9° |
| 2026-05-08 01:30 | -33.93516 | 151.17841 | 28 ft | 2 kts | 9° |
| 2026-05-08 01:30 | -33.93498 | 151.17833 | 28 ft | 2 kts | 302° |
| 2026-05-08 01:30 | -33.93492 | 151.17807 | 28 ft | 3 kts | 281° |
| 2026-05-08 01:31 | -33.93488 | 151.17781 | 28 ft | 3 kts | 281° |
| 2026-05-08 01:31 | -33.93488 | 151.17780 | 28 ft | 0 kts | 281° |